Time;durP1;ratioP1;P1;durP2;ratioP2;P2;SDS_P1;SDS_P2;PMS_P1;PMS_P2;Temp;Humidity;BMP_temperature;BMP_pressure;BME280_temperature;BME280_humidity;BME280_pressure;Samples;Min_cycle;Max_cycle;Signal;HPM_P1;HPM_P2
2022/09/25 00:00:09;;;;;;;;;;;11.20;99.90;;;;;;4993440;28;19917;-84
2022/09/25 00:02:35;;;;;;;;;;;11.30;99.90;;;;;;5008311;28;24106;-84
2022/09/25 00:05:00;;;;;;;;;;;11.30;99.90;;;;;;4991947;28;24066;-84
2022/09/25 00:07:26;;;;;;;;;;;11.30;99.90;;;;;;4975719;28;24069;-84
2022/09/25 00:09:51;;;;;;;;;;;11.20;99.90;;;;;;4991695;28;19945;-84
2022/09/25 00:12:17;;;;;;;;;;;11.20;99.90;;;;;;4975659;28;24055;-84
2022/09/25 00:14:42;;;;;;;;;;;11.20;99.90;;;;;;4975414;28;19914;-84
2022/09/25 00:17:08;;;;;;;;;;;11.20;99.90;;;;;;4975882;28;20370;-84
2022/09/25 00:19:49;;;;;;;;;;;11.20;99.90;;;;;;4975673;28;20048;-84
2022/09/25 00:22:17;;;;;;;;;;;11.10;99.90;;;;;;4975710;28;19909;-85
2022/09/25 00:24:43;;;;;;;;;;;11.20;99.90;;;;;;4991765;28;19917;-84
2022/09/25 00:27:09;;;;;;;;;;;11.10;99.90;;;;;;5008059;28;24080;-84
2022/09/25 00:29:35;;;;;;;;;;;11.10;99.90;;;;;;4975703;28;19910;-85
2022/09/25 00:32:02;;;;;;;;;;;11.00;99.90;;;;;;4975652;28;19910;-85
2022/09/25 00:34:27;;;;;;;;;;;11.00;99.90;;;;;;5006840;28;24053;-84
2022/09/25 00:36:53;;;;;;;;;;;11.00;99.90;;;;;;4991647;28;19916;-85
2022/09/25 00:39:18;;;;;;;;;;;11.00;99.90;;;;;;4975123;28;20051;-85
2022/09/25 00:41:44;;;;;;;;;;;11.00;99.90;;;;;;4991505;28;20062;-84
2022/09/25 00:44:28;;;;;;;;;;;11.10;99.90;;;;;;4975282;28;20044;-84
2022/09/25 00:46:54;;;;;;;;;;;11.10;99.90;;;;;;4991283;28;19961;-84
2022/09/25 00:49:22;;;;;;;;;;;11.10;99.90;;;;;;4974962;28;20031;-85
2022/09/25 00:52:01;;;;;;;;;;;11.10;99.90;;;;;;4991409;28;19909;-85
2022/09/25 00:54:31;;;;;;;;;;;11.10;99.90;;;;;;4974775;28;19913;-84
2022/09/25 00:56:58;;;;;;;;;;;11.10;99.90;;;;;;4974759;28;25151;-84
2022/09/25 00:59:26;;;;;;;;;;;11.10;99.90;;;;;;4990643;28;20088;-84
2022/09/25 01:01:52;;;;;;;;;;;11.00;99.90;;;;;;4990531;28;19914;-85
2022/09/25 01:04:18;;;;;;;;;;;11.10;99.90;;;;;;4974348;28;20536;-85
2022/09/25 01:06:44;;;;;;;;;;;11.10;99.90;;;;;;4974412;28;20043;-84
2022/09/25 01:09:10;;;;;;;;;;;11.10;99.90;;;;;;4974567;28;20117;-84
2022/09/25 01:11:35;;;;;;;;;;;11.10;99.90;;;;;;4990845;28;20096;-84
2022/09/25 01:14:04;;;;;;;;;;;11.20;99.90;;;;;;4991139;28;24069;-84
2022/09/25 01:16:29;;;;;;;;;;;11.20;99.90;;;;;;4991589;28;24072;-85
2022/09/25 01:19:10;;;;;;;;;;;11.10;99.90;;;;;;4991783;28;19910;-84
2022/09/25 01:21:41;;;;;;;;;;;11.10;99.90;;;;;;4991466;28;20048;-85
2022/09/25 01:24:18;;;;;;;;;;;11.10;99.90;;;;;;4990732;28;20357;-85
2022/09/25 01:27:04;;;;;;;;;;;11.10;99.90;;;;;;4990495;28;24070;-85
2022/09/25 01:29:33;;;;;;;;;;;11.10;99.90;;;;;;4991364;28;20492;-84
2022/09/25 01:32:03;;;;;;;;;;;11.10;99.90;;;;;;4974920;28;19976;-85
2022/09/25 01:34:34;;;;;;;;;;;11.00;99.90;;;;;;4974409;28;20046;-84
2022/09/25 01:37:34;;;;;;;;;;;11.00;99.90;;;;;;5008366;28;19917;-84
2022/09/25 01:40:10;;;;;;;;;;;11.00;99.90;;;;;;4990169;28;20052;-84
2022/09/25 01:42:39;;;;;;;;;;;11.00;99.90;;;;;;5006675;28;24070;-85
2022/09/25 01:45:06;;;;;;;;;;;11.00;99.90;;;;;;4991482;28;19922;-83
2022/09/25 01:47:36;;;;;;;;;;;11.00;99.90;;;;;;4974290;28;20033;-83
2022/09/25 01:50:22;;;;;;;;;;;11.10;99.90;;;;;;4991163;28;24103;-84
2022/09/25 01:52:50;;;;;;;;;;;11.00;99.90;;;;;;4983228;28;19997;-84
2022/09/25 01:55:23;;;;;;;;;;;11.00;99.90;;;;;;4974115;28;19910;-84
2022/09/25 01:58:02;;;;;;;;;;;10.90;99.90;;;;;;4974278;28;24070;-84
2022/09/25 02:00:28;;;;;;;;;;;10.90;99.90;;;;;;4974119;28;20125;-84
2022/09/25 02:02:55;;;;;;;;;;;10.90;99.90;;;;;;4973946;28;24081;-85
2022/09/25 02:05:33;;;;;;;;;;;10.90;99.90;;;;;;4991363;28;19914;-84
2022/09/25 02:08:04;;;;;;;;;;;10.90;99.90;;;;;;4976108;28;20120;-84
2022/09/25 02:10:33;;;;;;;;;;;10.90;99.90;;;;;;4994479;28;19917;-84
2022/09/25 02:13:04;;;;;;;;;;;10.90;99.90;;;;;;4977922;28;20357;-84
2022/09/25 02:15:32;;;;;;;;;;;10.90;99.90;;;;;;4977238;28;20362;-85
2022/09/25 02:20:46;;;;;;;;;;;10.90;99.90;;;;;;4995855;28;20047;-87
2022/09/25 02:23:22;;;;;;;;;;;10.90;99.90;;;;;;4979464;28;20276;-87
2022/09/25 02:25:54;;;;;;;;;;;10.90;99.90;;;;;;5011607;28;20243;-87
2022/09/25 02:28:20;;;;;;;;;;;10.80;99.90;;;;;;4978984;28;20336;-87
2022/09/25 02:30:46;;;;;;;;;;;10.90;99.90;;;;;;4978646;28;20354;-88
2022/09/25 02:33:11;;;;;;;;;;;10.90;99.90;;;;;;4978440;28;24061;-87
2022/09/25 02:35:38;;;;;;;;;;;10.90;99.90;;;;;;4978739;28;20117;-87
2022/09/25 02:38:04;;;;;;;;;;;10.90;99.90;;;;;;4978840;28;19910;-88
2022/09/25 02:40:48;;;;;;;;;;;10.90;99.90;;;;;;4978714;28;20005;-87
2022/09/25 02:43:23;;;;;;;;;;;10.90;99.90;;;;;;4994739;28;20054;-87
2022/09/25 02:45:49;;;;;;;;;;;10.90;99.90;;;;;;5011148;28;19913;-87
2022/09/25 02:48:21;;;;;;;;;;;10.90;99.90;;;;;;4994518;28;20076;-87
2022/09/25 02:50:55;;;;;;;;;;;10.90;99.90;;;;;;4994372;28;20086;-87
2022/09/25 02:53:39;;;;;;;;;;;10.80;99.90;;;;;;4978588;28;20031;-87
2022/09/25 02:56:28;;;;;;;;;;;10.80;99.90;;;;;;4995837;28;19910;-87
2022/09/25 03:02:44;;;;;;;;;;;10.80;99.90;;;;;;4994491;28;20017;-84
2022/09/25 03:05:11;;;;;;;;;;;10.80;99.90;;;;;;4992168;28;20141;-84
2022/09/25 03:10:21;;;;;;;;;;;10.80;99.90;;;;;;5008946;28;19924;-84
2022/09/25 03:12:47;;;;;;;;;;;10.80;99.90;;;;;;4976849;28;20137;-85
2022/09/25 03:15:13;;;;;;;;;;;10.80;99.90;;;;;;4993707;28;20044;-87
2022/09/25 03:17:38;;;;;;;;;;;10.80;99.90;;;;;;4994068;28;20042;-87
2022/09/25 03:20:05;;;;;;;;;;;10.80;99.90;;;;;;4976197;28;19913;-87
2022/09/25 03:22:31;;;;;;;;;;;10.90;99.90;;;;;;5010129;28;20042;-87
2022/09/25 03:24:57;;;;;;;;;;;10.90;99.90;;;;;;4977862;28;20042;-87
2022/09/25 03:27:24;;;;;;;;;;;10.90;99.90;;;;;;4977646;28;19910;-87
2022/09/25 03:29:49;;;;;;;;;;;10.90;99.90;;;;;;4977463;28;20099;-87
2022/09/25 03:32:15;;;;;;;;;;;10.90;99.90;;;;;;4994859;28;19909;-87
2022/09/25 03:34:40;;;;;;;;;;;10.80;99.90;;;;;;4977441;28;19913;-87
2022/09/25 03:37:06;;;;;;;;;;;10.90;99.90;;;;;;4977127;28;19910;-87
2022/09/25 03:39:31;;;;;;;;;;;10.90;99.90;;;;;;5009778;28;20050;-87
2022/09/25 03:41:57;;;;;;;;;;;10.90;99.90;;;;;;4993447;28;20044;-87
2022/09/25 03:44:22;;;;;;;;;;;10.80;99.90;;;;;;4976980;28;19916;-87
2022/09/25 03:46:48;;;;;;;;;;;10.80;99.90;;;;;;4993212;28;20423;-87
2022/09/25 03:49:13;;;;;;;;;;;10.80;99.90;;;;;;4976930;28;19940;-87
2022/09/25 03:51:40;;;;;;;;;;;10.80;99.90;;;;;;4992939;28;20044;-87
2022/09/25 03:54:06;;;;;;;;;;;10.80;99.90;;;;;;4977383;28;20037;-87
2022/09/25 03:56:32;;;;;;;;;;;10.80;99.90;;;;;;4976765;28;20539;-87
2022/09/25 03:58:58;;;;;;;;;;;10.80;99.90;;;;;;4992628;28;20342;-87
2022/09/25 04:01:24;;;;;;;;;;;10.80;99.90;;;;;;4976597;28;20380;-87
2022/09/25 04:03:50;;;;;;;;;;;10.80;99.90;;;;;;5009044;28;20040;-87
2022/09/25 04:06:43;;;;;;;;;;;10.90;99.90;;;;;;4976843;28;20048;-87
2022/09/25 04:09:09;;;;;;;;;;;10.80;99.90;;;;;;4992588;28;20282;-87
2022/09/25 04:11:36;;;;;;;;;;;10.90;99.90;;;;;;4992900;28;19917;-87
2022/09/25 04:14:03;;;;;;;;;;;10.90;99.90;;;;;;4991707;28;20041;-84
2022/09/25 04:16:30;;;;;;;;;;;10.90;99.90;;;;;;4991711;28;19968;-84
2022/09/25 04:18:55;;;;;;;;;;;10.90;99.90;;;;;;5007808;28;19916;-84
2022/09/25 04:21:21;;;;;;;;;;;10.90;99.90;;;;;;4991395;28;20044;-84
2022/09/25 04:24:47;;;;;;;;;;;10.90;99.90;;;;;;5007533;28;20039;-85
2022/09/25 04:26:32;;;;;;;;;;;11.00;99.90;;;;;;4990812;28;19917;-84
2022/09/25 04:29:02;;;;;;;;;;;11.00;99.90;;;;;;4991220;28;20044;-84
2022/09/25 04:31:28;;;;;;;;;;;10.90;99.90;;;;;;4974059;28;19910;-84
2022/09/25 04:33:54;;;;;;;;;;;11.00;99.90;;;;;;4974119;28;20084;-84
2022/09/25 04:36:20;;;;;;;;;;;10.90;99.90;;;;;;4974760;28;20476;-84
2022/09/25 04:38:46;;;;;;;;;;;10.90;99.90;;;;;;5007450;28;20139;-85
2022/09/25 04:41:14;;;;;;;;;;;11.00;99.90;;;;;;4974125;28;19914;-84
2022/09/25 04:43:42;;;;;;;;;;;11.00;99.90;;;;;;4974566;28;19910;-85
2022/09/25 04:46:09;;;;;;;;;;;11.00;99.90;;;;;;4991104;28;20041;-84
2022/09/25 04:48:35;;;;;;;;;;;11.00;99.90;;;;;;4974339;28;20109;-84
2022/09/25 04:51:00;;;;;;;;;;;11.00;99.90;;;;;;4974810;28;20037;-84
2022/09/25 04:53:28;;;;;;;;;;;11.00;99.90;;;;;;4990697;28;19996;-84
2022/09/25 04:55:54;;;;;;;;;;;11.00;99.90;;;;;;4974895;28;19920;-85
2022/09/25 04:58:20;;;;;;;;;;;11.00;99.90;;;;;;4974806;28;20041;-84
2022/09/25 05:00:46;;;;;;;;;;;10.90;99.90;;;;;;4974429;28;20005;-84
2022/09/25 05:03:11;;;;;;;;;;;11.00;99.90;;;;;;4974724;28;20369;-84
2022/09/25 05:05:37;;;;;;;;;;;11.00;99.90;;;;;;4973983;28;20528;-83
2022/09/25 05:08:02;;;;;;;;;;;11.00;99.90;;;;;;4974129;28;20040;-83
2022/09/25 05:10:30;;;;;;;;;;;11.00;99.90;;;;;;5007128;28;19909;-84
2022/09/25 05:12:57;;;;;;;;;;;11.00;99.90;;;;;;4974266;28;19914;-84
2022/09/25 05:15:23;;;;;;;;;;;11.00;99.90;;;;;;5006839;28;19910;-87
2022/09/25 05:17:49;;;;;;;;;;;11.00;99.90;;;;;;4974719;28;20008;-87
2022/09/25 05:20:15;;;;;;;;;;;11.10;99.90;;;;;;4991202;28;20042;-87
2022/09/25 05:22:41;;;;;;;;;;;11.10;99.90;;;;;;4974735;28;20004;-87
2022/09/25 05:25:07;;;;;;;;;;;11.10;99.90;;;;;;4990313;28;20129;-87
2022/09/25 05:27:33;;;;;;;;;;;11.10;99.90;;;;;;4974699;28;20087;-87
2022/09/25 05:29:59;;;;;;;;;;;11.10;99.90;;;;;;4990507;28;19914;-87
2022/09/25 05:32:25;;;;;;;;;;;11.10;99.90;;;;;;5007130;28;20134;-87
2022/09/25 05:34:50;;;;;;;;;;;11.10;99.90;;;;;;4974304;28;20699;-87
2022/09/25 05:37:16;;;;;;;;;;;11.10;99.90;;;;;;4974486;28;20072;-87
2022/09/25 05:39:42;;;;;;;;;;;11.10;99.90;;;;;;4973750;28;19910;-87
2022/09/25 05:42:07;;;;;;;;;;;11.10;99.90;;;;;;4974821;28;20369;-88
2022/09/25 05:44:33;;;;;;;;;;;11.10;99.90;;;;;;4978341;28;20128;-87
2022/09/25 05:46:59;;;;;;;;;;;11.10;99.90;;;;;;4978517;28;20254;-87
2022/09/25 05:49:24;;;;;;;;;;;11.10;99.90;;;;;;4978378;28;19988;-86
2022/09/25 05:51:50;;;;;;;;;;;11.00;99.90;;;;;;4994474;28;19917;-87
2022/09/25 05:54:15;;;;;;;;;;;11.00;99.90;;;;;;4978741;28;20063;-87
2022/09/25 05:56:41;;;;;;;;;;;11.00;99.90;;;;;;4978907;28;20506;-87
2022/09/25 05:59:06;;;;;;;;;;;11.00;99.90;;;;;;4994652;28;20509;-87
2022/09/25 06:01:32;;;;;;;;;;;11.10;99.90;;;;;;4978316;28;19910;-87
2022/09/25 06:03:57;;;;;;;;;;;11.00;99.90;;;;;;5010767;28;19910;-87
2022/09/25 06:06:23;;;;;;;;;;;11.00;99.90;;;;;;4978280;28;19913;-87
2022/09/25 06:08:49;;;;;;;;;;;11.00;99.90;;;;;;4977936;28;19914;-87
2022/09/25 06:11:14;;;;;;;;;;;11.10;99.90;;;;;;4994140;28;20057;-87
2022/09/25 06:13:43;;;;;;;;;;;11.10;99.90;;;;;;4977464;28;19941;-87
2022/09/25 06:16:12;;;;;;;;;;;11.10;99.90;;;;;;5010318;28;20044;-87
2022/09/25 06:18:38;;;;;;;;;;;11.10;99.90;;;;;;5010391;28;19909;-87
2022/09/25 06:21:04;;;;;;;;;;;11.10;99.90;;;;;;5010202;28;20051;-87
2022/09/25 06:23:30;;;;;;;;;;;11.10;99.90;;;;;;4993615;28;19912;-87
2022/09/25 06:25:59;;;;;;;;;;;11.10;99.90;;;;;;4993802;28;20364;-87
2022/09/25 06:28:24;;;;;;;;;;;11.10;99.90;;;;;;4977424;28;20399;-87
2022/09/25 06:30:50;;;;;;;;;;;11.00;99.90;;;;;;4977404;28;20051;-87
2022/09/25 06:33:16;;;;;;;;;;;10.90;99.90;;;;;;4993657;28;19921;-88
2022/09/25 06:35:46;;;;;;;;;;;11.00;99.90;;;;;;4977413;28;19971;-87
2022/09/25 06:38:11;;;;;;;;;;;11.00;99.90;;;;;;4976921;28;19968;-87
2022/09/25 06:40:39;;;;;;;;;;;11.00;99.90;;;;;;4976426;28;20074;-87
2022/09/25 06:43:06;;;;;;;;;;;11.00;99.90;;;;;;4976825;28;19914;-87
2022/09/25 06:45:33;;;;;;;;;;;11.00;99.90;;;;;;5009812;28;19910;-88
2022/09/25 06:48:07;;;;;;;;;;;11.00;99.90;;;;;;4992815;28;19913;-87
2022/09/25 06:50:40;;;;;;;;;;;11.10;99.90;;;;;;4977018;28;20744;-87
2022/09/25 06:53:05;;;;;;;;;;;11.20;99.90;;;;;;5008972;28;20043;-88
2022/09/25 06:55:31;;;;;;;;;;;11.30;99.90;;;;;;4977400;28;19914;-87
2022/09/25 06:57:57;;;;;;;;;;;11.30;99.90;;;;;;4977441;28;19909;-87
2022/09/25 07:00:23;;;;;;;;;;;11.40;99.90;;;;;;4977335;28;20012;-87
2022/09/25 07:05:33;;;;;;;;;;;11.40;99.90;;;;;;4994296;28;19910;-88
2022/09/25 07:07:59;;;;;;;;;;;11.40;99.90;;;;;;4976790;28;20029;-87
2022/09/25 07:10:24;;;;;;;;;;;11.40;99.90;;;;;;4977187;28;20483;-88
2022/09/25 07:12:50;;;;;;;;;;;11.40;99.90;;;;;;4993165;28;19961;-88
2022/09/25 07:15:16;;;;;;;;;;;11.50;99.90;;;;;;4992824;28;19940;-87
2022/09/25 07:17:44;;;;;;;;;;;11.60;99.90;;;;;;4976233;28;20037;-87
2022/09/25 07:20:12;;;;;;;;;;;11.50;99.90;;;;;;4976630;28;20037;-87
2022/09/25 07:22:38;;;;;;;;;;;11.40;99.90;;;;;;4976479;28;20041;-88
2022/09/25 07:25:05;;;;;;;;;;;11.40;99.90;;;;;;4975901;28;20155;-87
2022/09/25 07:27:31;;;;;;;;;;;11.40;99.90;;;;;;4976482;28;20500;-87
2022/09/25 07:29:56;;;;;;;;;;;11.50;99.90;;;;;;4976387;28;20064;-87
2022/09/25 07:32:22;;;;;;;;;;;11.60;99.90;;;;;;4976518;28;20626;-88
2022/09/25 07:34:50;;;;;;;;;;;11.70;99.90;;;;;;4992857;28;19909;-87
2022/09/25 07:37:16;;;;;;;;;;;11.80;99.90;;;;;;4992564;28;20045;-87
2022/09/25 07:39:42;;;;;;;;;;;11.90;99.90;;;;;;4976363;28;20008;-88
2022/09/25 07:42:08;;;;;;;;;;;12.00;99.90;;;;;;4976818;28;20068;-87
2022/09/25 07:44:33;;;;;;;;;;;12.00;99.90;;;;;;5008891;28;19920;-89
2022/09/25 07:47:02;;;;;;;;;;;12.00;99.90;;;;;;4976299;28;20048;-88
2022/09/25 07:49:28;;;;;;;;;;;11.90;99.90;;;;;;4991988;28;20320;-89
2022/09/25 07:51:53;;;;;;;;;;;11.90;99.90;;;;;;4975571;28;20088;-88
2022/09/25 07:54:19;;;;;;;;;;;11.80;99.90;;;;;;4975513;28;19909;-88
2022/09/25 07:56:44;;;;;;;;;;;11.80;99.90;;;;;;4991733;28;24080;-88
2022/09/25 07:59:10;;;;;;;;;;;11.70;99.90;;;;;;4975492;28;20482;-87
2022/09/25 08:01:35;;;;;;;;;;;11.80;99.90;;;;;;4976452;28;20458;-87
2022/09/25 08:04:01;;;;;;;;;;;11.90;99.90;;;;;;4976270;28;20449;-87
2022/09/25 08:06:26;;;;;;;;;;;12.00;99.90;;;;;;4975203;28;20378;-88
2022/09/25 08:08:52;;;;;;;;;;;12.20;99.90;;;;;;4992846;28;19983;-88
2022/09/25 08:11:18;;;;;;;;;;;12.50;99.90;;;;;;4992456;28;20028;-88
2022/09/25 08:13:44;;;;;;;;;;;12.70;99.90;;;;;;5008538;28;19925;-87
2022/09/25 08:16:12;;;;;;;;;;;13.00;99.90;;;;;;5009576;28;20008;-87
2022/09/25 08:18:40;;;;;;;;;;;13.10;99.90;;;;;;4976885;28;20146;-87
2022/09/25 08:24:34;;;;;;;;;;;13.30;99.90;;;;;;4993641;28;19921;-88
2022/09/25 08:26:59;;;;;;;;;;;13.20;99.90;;;;;;4976421;28;20369;-89
2022/09/25 08:29:25;;;;;;;;;;;13.30;99.90;;;;;;4976098;28;20044;-88
2022/09/25 08:31:50;;;;;;;;;;;13.40;99.90;;;;;;5008363;28;19921;-88
2022/09/25 08:34:16;;;;;;;;;;;13.50;99.90;;;;;;4975463;28;19914;-88
2022/09/25 08:36:42;;;;;;;;;;;13.60;99.90;;;;;;4976114;28;19909;-88
2022/09/25 08:39:08;;;;;;;;;;;13.50;99.90;;;;;;4975973;28;20012;-88
2022/09/25 08:41:41;;;;;;;;;;;13.50;99.90;;;;;;4992063;28;19937;-88
2022/09/25 08:44:25;;;;;;;;;;;13.40;99.90;;;;;;4975589;28;20045;-87
2022/09/25 08:49:44;;;;;;;;;;;13.10;99.90;;;;;;5007727;28;24137;-87
2022/09/25 08:52:13;;;;;;;;;;;12.80;99.90;;;;;;4975596;28;20024;-87
2022/09/25 08:54:38;;;;;;;;;;;12.60;99.90;;;;;;4975007;28;20491;-87
2022/09/25 08:57:26;;;;;;;;;;;12.40;99.90;;;;;;4975423;28;19963;-87
2022/09/25 08:59:54;;;;;;;;;;;12.40;99.90;;;;;;4991836;28;19909;-87
2022/09/25 09:02:21;;;;;;;;;;;12.40;99.90;;;;;;4975297;28;19944;-88
2022/09/25 09:04:50;;;;;;;;;;;12.50;99.90;;;;;;4991683;28;20052;-87
2022/09/25 09:07:22;;;;;;;;;;;12.60;99.90;;;;;;4975149;28;24083;-87
2022/09/25 09:09:51;;;;;;;;;;;12.70;99.90;;;;;;4975400;28;19913;-87
2022/09/25 09:12:24;;;;;;;;;;;12.90;99.90;;;;;;4975063;28;24100;-87
2022/09/25 09:14:52;;;;;;;;;;;13.00;99.90;;;;;;4975395;28;19953;-87
2022/09/25 09:17:19;;;;;;;;;;;13.20;99.90;;;;;;4975078;28;20254;-87
2022/09/25 09:19:46;;;;;;;;;;;13.30;99.90;;;;;;4974859;28;25063;-87
2022/09/25 09:22:13;;;;;;;;;;;13.30;99.90;;;;;;5007653;28;19913;-87
2022/09/25 09:24:54;;;;;;;;;;;13.50;99.90;;;;;;4990875;28;20350;-87
2022/09/25 09:27:23;;;;;;;;;;;13.50;99.90;;;;;;4991125;28;20315;-87
2022/09/25 09:30:07;;;;;;;;;;;13.40;99.90;;;;;;4990834;28;19913;-87
2022/09/25 09:32:53;;;;;;;;;;;13.30;99.90;;;;;;4990922;28;19909;-86
2022/09/25 09:35:38;;;;;;;;;;;13.10;99.90;;;;;;4991041;28;19910;-86
2022/09/25 09:38:13;;;;;;;;;;;12.80;99.90;;;;;;4992178;28;19914;-86
2022/09/25 09:41:20;;;;;;;;;;;12.70;99.90;;;;;;4991441;28;24097;-86
2022/09/25 09:43:58;;;;;;;;;;;12.60;99.90;;;;;;4954608;28;19953;-86
2022/09/25 09:46:43;;;;;;;;;;;12.50;99.90;;;;;;4954910;28;19922;-86
2022/09/25 09:49:09;;;;;;;;;;;12.60;99.90;;;;;;4963029;28;19920;-87
2022/09/25 09:51:39;;;;;;;;;;;12.70;99.90;;;;;;5007432;28;19909;-86
2022/09/25 09:54:16;;;;;;;;;;;12.90;99.90;;;;;;5006815;28;24075;-87
2022/09/25 09:56:45;;;;;;;;;;;12.90;99.90;;;;;;4974734;28;20312;-86
2022/09/25 09:59:16;;;;;;;;;;;12.90;99.90;;;;;;4974251;28;19910;-86
2022/09/25 10:01:43;;;;;;;;;;;13.00;99.90;;;;;;4991633;28;25071;-86
2022/09/25 10:04:11;;;;;;;;;;;13.10;99.90;;;;;;5006573;28;19916;-86
2022/09/25 10:06:42;;;;;;;;;;;13.20;99.90;;;;;;5006460;28;24077;-86
2022/09/25 10:09:12;;;;;;;;;;;13.20;99.90;;;;;;5006708;28;19914;-86
2022/09/25 10:11:39;;;;;;;;;;;13.20;99.90;;;;;;4990510;28;24123;-86
2022/09/25 10:14:04;;;;;;;;;;;13.00;99.90;;;;;;4974884;28;20063;-86
2022/09/25 10:16:49;;;;;;;;;;;12.80;99.90;;;;;;5007432;28;19959;-85
2022/09/25 10:19:19;;;;;;;;;;;12.50;99.90;;;;;;4991454;28;20411;-86
2022/09/25 10:21:48;;;;;;;;;;;12.30;99.90;;;;;;4991314;28;24070;-86
2022/09/25 10:24:33;;;;;;;;;;;12.30;99.90;;;;;;4974994;28;19917;-86
2022/09/25 10:27:18;;;;;;;;;;;12.10;99.90;;;;;;4992639;28;20369;-86
2022/09/25 10:29:44;;;;;;;;;;;12.10;99.90;;;;;;4993428;28;25069;-86
2022/09/25 10:32:10;;;;;;;;;;;12.40;99.90;;;;;;4994374;28;19906;-86
2022/09/25 10:34:38;;;;;;;;;;;12.70;99.90;;;;;;5010274;28;19976;-86
2022/09/25 10:37:18;;;;;;;;;;;13.00;99.90;;;;;;4994456;28;19911;-86
2022/09/25 10:39:58;;;;;;;;;;;13.30;99.90;;;;;;4994064;28;24078;-86
2022/09/25 10:42:33;;;;;;;;;;;13.50;99.90;;;;;;4977876;28;19978;-86
2022/09/25 10:44:58;;;;;;;;;;;13.60;99.90;;;;;;5010531;28;20621;-86
2022/09/25 10:50:13;;;;;;;;;;;13.80;99.90;;;;;;5009974;28;20009;-86
2022/09/25 10:52:48;;;;;;;;;;;13.90;99.90;;;;;;4977757;28;19945;-86
2022/09/25 10:55:20;;;;;;;;;;;14.20;99.90;;;;;;4993197;28;25054;-86
2022/09/25 10:57:46;;;;;;;;;;;14.40;99.90;;;;;;4979379;28;24062;-86
2022/09/25 11:00:32;;;;;;;;;;;14.30;99.90;;;;;;4977622;28;19922;-87
2022/09/25 11:03:00;;;;;;;;;;;14.40;99.90;;;;;;4993666;28;25057;-88
2022/09/25 11:05:28;;;;;;;;;;;14.40;99.90;;;;;;4977095;28;20849;-88
2022/09/25 11:07:56;;;;;;;;;;;14.50;99.90;;;;;;4993559;28;19972;-88
2022/09/25 11:10:42;;;;;;;;;;;14.40;99.90;;;;;;4993075;28;24107;-87
2022/09/25 11:13:16;;;;;;;;;;;15.00;99.90;;;;;;4975634;28;19960;-87
2022/09/25 11:15:46;;;;;;;;;;;15.60;99.90;;;;;;4976009;28;24120;-87
2022/09/25 11:18:31;;;;;;;;;;;15.60;99.90;;;;;;5008494;28;20049;-87
2022/09/25 11:21:01;;;;;;;;;;;15.20;99.90;;;;;;4975066;28;24122;-87
2022/09/25 11:23:39;;;;;;;;;;;14.90;99.90;;;;;;4975230;28;24080;-87
2022/09/25 11:26:07;;;;;;;;;;;14.70;99.90;;;;;;4992061;28;19979;-86
2022/09/25 11:28:36;;;;;;;;;;;14.30;99.90;;;;;;4976045;28;25054;-87
2022/09/25 11:31:24;;;;;;;;;;;14.00;99.90;;;;;;4992805;28;19910;-88
2022/09/25 11:33:49;;;;;;;;;;;13.90;99.90;;;;;;4977059;28;20000;-88
2022/09/25 11:36:21;;;;;;;;;;;13.70;99.90;;;;;;5009847;28;24109;-88
2022/09/25 11:41:45;;;;;;;;;;;13.70;99.90;;;;;;5008110;28;24077;-88
2022/09/25 11:44:20;;;;;;;;;;;14.10;99.90;;;;;;4994527;28;20622;-88
2022/09/25 11:46:54;;;;;;;;;;;14.50;99.90;;;;;;4992844;28;19909;-87
2022/09/25 11:49:22;;;;;;;;;;;14.70;99.90;;;;;;4993987;28;19920;-87
2022/09/25 11:52:06;;;;;;;;;;;14.30;99.90;;;;;;4976968;28;19906;-88
2022/09/25 11:54:51;;;;;;;;;;;13.80;99.90;;;;;;5009000;28;19917;-87
2022/09/25 11:57:26;;;;;;;;;;;13.40;99.90;;;;;;4993450;28;19929;-87
2022/09/25 11:59:55;;;;;;;;;;;13.00;99.90;;;;;;4993305;28;20365;-88
2022/09/25 12:02:43;;;;;;;;;;;12.70;99.90;;;;;;4993211;28;20021;-87
2022/09/25 12:05:28;;;;;;;;;;;12.70;99.90;;;;;;4978385;28;19909;-87
2022/09/25 12:08:11;;;;;;;;;;;12.80;99.90;;;;;;5009546;28;24068;-86
2022/09/25 12:10:47;;;;;;;;;;;12.80;99.90;;;;;;4977008;28;20049;-87
2022/09/25 12:13:12;;;;;;;;;;;12.90;99.90;;;;;;4992933;28;24104;-87
2022/09/25 12:15:44;;;;;;;;;;;13.10;99.90;;;;;;4994522;28;19937;-86
2022/09/25 12:18:16;;;;;;;;;;;13.30;99.90;;;;;;4992856;28;19910;-87
2022/09/25 12:20:47;;;;;;;;;;;13.60;99.90;;;;;;5009341;28;20421;-87
2022/09/25 12:23:32;;;;;;;;;;;13.90;99.90;;;;;;5008595;28;20350;-87
2022/09/25 12:25:58;;;;;;;;;;;14.00;99.90;;;;;;4992396;28;20365;-87
2022/09/25 12:28:53;;;;;;;;;;;14.30;99.90;;;;;;4991919;28;19913;-87
2022/09/25 12:31:19;;;;;;;;;;;14.50;99.90;;;;;;4974780;28;19917;-87
2022/09/25 12:33:44;;;;;;;;;;;14.80;99.90;;;;;;4991552;28;20591;-88
2022/09/25 12:36:16;;;;;;;;;;;15.00;99.90;;;;;;5008561;28;20280;-87
2022/09/25 12:38:47;;;;;;;;;;;15.10;99.90;;;;;;4974975;28;25062;-87
2022/09/25 12:41:18;;;;;;;;;;;15.00;99.90;;;;;;4992146;28;24136;-86
2022/09/25 12:43:51;;;;;;;;;;;14.80;99.90;;;;;;4974693;28;20003;-87
2022/09/25 12:46:20;;;;;;;;;;;14.70;99.90;;;;;;4991241;28;19917;-86
2022/09/25 12:48:50;;;;;;;;;;;14.50;99.90;;;;;;4991269;28;24114;-87
2022/09/25 12:51:22;;;;;;;;;;;14.40;99.90;;;;;;5007489;28;24102;-87
2022/09/25 12:53:49;;;;;;;;;;;14.20;99.90;;;;;;4975478;28;19913;-87
2022/09/25 12:56:15;;;;;;;;;;;14.10;99.90;;;;;;4992031;28;20381;-86
2022/09/25 12:58:46;;;;;;;;;;;13.90;99.90;;;;;;5004576;28;19916;-86
2022/09/25 13:01:31;;;;;;;;;;;13.70;99.90;;;;;;4991460;28;20277;-87
2022/09/25 13:04:15;;;;;;;;;;;13.90;99.90;;;;;;4990872;28;20419;-86
2022/09/25 13:06:48;;;;;;;;;;;14.20;99.90;;;;;;4975007;28;19913;-87
2022/09/25 13:09:17;;;;;;;;;;;14.70;99.90;;;;;;4990937;28;24108;-87
2022/09/25 13:11:46;;;;;;;;;;;14.90;99.90;;;;;;4990764;28;25099;-86
2022/09/25 13:14:33;;;;;;;;;;;14.90;99.90;;;;;;4975034;28;20317;-86
2022/09/25 13:17:00;;;;;;;;;;;15.00;99.90;;;;;;4990949;28;20293;-87
2022/09/25 13:19:31;;;;;;;;;;;15.00;99.90;;;;;;4991336;28;20375;-87
2022/09/25 13:22:03;;;;;;;;;;;14.80;99.90;;;;;;5008126;28;19914;-88
2022/09/25 13:24:29;;;;;;;;;;;14.60;99.90;;;;;;4991754;28;19944;-86
2022/09/25 13:26:57;;;;;;;;;;;14.50;99.90;;;;;;4975246;28;20270;-87
2022/09/25 13:29:34;;;;;;;;;;;14.50;99.90;;;;;;4974994;28;19936;-86
2022/09/25 13:32:05;;;;;;;;;;;14.70;99.90;;;;;;4974723;28;24083;-87
2022/09/25 13:34:33;;;;;;;;;;;14.70;99.90;;;;;;4991476;28;19910;-87
2022/09/25 13:37:02;;;;;;;;;;;14.70;99.90;;;;;;4974898;28;20000;-87
2022/09/25 13:42:21;;;;;;;;;;;14.60;99.90;;;;;;5007249;28;24151;-88
2022/09/25 13:44:48;;;;;;;;;;;14.70;99.90;;;;;;4991087;28;19920;-87
2022/09/25 13:47:31;;;;;;;;;;;14.50;99.90;;;;;;4974845;28;19960;-87
2022/09/25 13:50:06;;;;;;;;;;;14.50;99.90;;;;;;4975370;28;19920;-87
2022/09/25 13:52:34;;;;;;;;;;;14.30;99.90;;;;;;4975606;28;19917;-87
2022/09/25 13:55:12;;;;;;;;;;;14.10;99.90;;;;;;4991567;28;19906;-87
2022/09/25 13:57:57;;;;;;;;;;;14.20;99.90;;;;;;4993326;28;19909;-88
2022/09/25 14:00:23;;;;;;;;;;;14.10;99.90;;;;;;4988931;28;19910;-87
2022/09/25 14:02:49;;;;;;;;;;;13.80;99.90;;;;;;4975751;28;19977;-87
2022/09/25 14:05:16;;;;;;;;;;;13.70;99.90;;;;;;4979953;28;20350;-87
2022/09/25 14:07:43;;;;;;;;;;;13.50;99.90;;;;;;4979966;28;24147;-87
2022/09/25 14:10:09;;;;;;;;;;;13.30;99.90;;;;;;4980253;28;20008;-87
2022/09/25 14:12:44;;;;;;;;;;;13.30;99.90;;;;;;4979705;28;19957;-88
2022/09/25 14:15:26;;;;;;;;;;;13.20;99.90;;;;;;5012011;28;19910;-87
2022/09/25 14:17:53;;;;;;;;;;;13.30;99.90;;;;;;4996431;28;19910;-87
2022/09/25 14:20:28;;;;;;;;;;;13.40;99.90;;;;;;4995996;28;19916;-87
2022/09/25 14:22:55;;;;;;;;;;;13.60;99.90;;;;;;5012894;28;19992;-87
2022/09/25 14:25:22;;;;;;;;;;;13.60;99.90;;;;;;4996754;28;19916;-87
2022/09/25 14:27:51;;;;;;;;;;;13.60;99.90;;;;;;4979510;28;19916;-88
2022/09/25 14:30:17;;;;;;;;;;;13.50;99.90;;;;;;4995479;28;19916;-87
2022/09/25 14:32:55;;;;;;;;;;;13.50;99.90;;;;;;4978958;28;19910;-87
2022/09/25 14:35:44;;;;;;;;;;;13.70;99.90;;;;;;4995240;28;19916;-88
2022/09/25 14:38:16;;;;;;;;;;;13.70;99.90;;;;;;4995490;28;19996;-88
2022/09/25 14:40:53;;;;;;;;;;;13.90;99.90;;;;;;5012001;28;19917;-87
2022/09/25 14:43:32;;;;;;;;;;;14.00;99.90;;;;;;4996887;28;19916;-88
2022/09/25 14:46:01;;;;;;;;;;;13.70;99.90;;;;;;4997053;28;25127;-89
2022/09/25 14:48:34;;;;;;;;;;;13.30;99.90;;;;;;4995194;28;20008;-88
2022/09/25 14:51:03;;;;;;;;;;;12.70;99.90;;;;;;4978852;28;19910;-88
2022/09/25 14:53:30;;;;;;;;;;;12.20;99.90;;;;;;5010910;28;24067;-88
2022/09/25 14:55:57;;;;;;;;;;;11.90;99.90;;;;;;4978661;28;19909;-88
2022/09/25 14:58:31;;;;;;;;;;;11.90;99.90;;;;;;4978321;28;19913;-88